sensor_id;sensor_type;location;lat;lon;timestamp;P1;durP1;ratioP1;P2;durP2;ratioP2
53875;SDS011;39789;53.216;5.624;2022-07-30T00:01:05;6.85;;;4.95;;
53875;SDS011;39789;53.216;5.624;2022-07-30T00:03:31;9.40;;;5.30;;
53875;SDS011;39789;53.216;5.624;2022-07-30T00:05:57;8.25;;;6.18;;
53875;SDS011;39789;53.216;5.624;2022-07-30T00:08:23;7.20;;;5.38;;
53875;SDS011;39789;53.216;5.624;2022-07-30T00:10:49;8.63;;;5.43;;
53875;SDS011;39789;53.216;5.624;2022-07-30T00:13:15;9.68;;;5.70;;
53875;SDS011;39789;53.216;5.624;2022-07-30T00:15:41;10.52;;;6.47;;
53875;SDS011;39789;53.216;5.624;2022-07-30T00:18:06;8.82;;;5.60;;
53875;SDS011;39789;53.216;5.624;2022-07-30T00:20:32;8.73;;;5.28;;
53875;SDS011;39789;53.216;5.624;2022-07-30T00:23:00;7.80;;;5.65;;
53875;SDS011;39789;53.216;5.624;2022-07-30T00:25:27;6.82;;;5.25;;
53875;SDS011;39789;53.216;5.624;2022-07-30T00:27:53;8.20;;;5.13;;
53875;SDS011;39789;53.216;5.624;2022-07-30T00:30:18;6.90;;;6.18;;
53875;SDS011;39789;53.216;5.624;2022-07-30T00:32:44;7.28;;;5.07;;
53875;SDS011;39789;53.216;5.624;2022-07-30T00:35:09;7.22;;;5.20;;
53875;SDS011;39789;53.216;5.624;2022-07-30T00:37:35;6.95;;;4.90;;
53875;SDS011;39789;53.216;5.624;2022-07-30T00:40:01;7.65;;;5.65;;
53875;SDS011;39789;53.216;5.624;2022-07-30T00:42:41;6.55;;;5.07;;
53875;SDS011;39789;53.216;5.624;2022-07-30T00:45:08;6.03;;;5.07;;
53875;SDS011;39789;53.216;5.624;2022-07-30T00:47:35;7.13;;;5.72;;
53875;SDS011;39789;53.216;5.624;2022-07-30T00:50:01;8.95;;;5.55;;
53875;SDS011;39789;53.216;5.624;2022-07-30T00:52:31;7.03;;;5.88;;
53875;SDS011;39789;53.216;5.624;2022-07-30T00:54:58;8.90;;;5.00;;
53875;SDS011;39789;53.216;5.624;2022-07-30T00:57:25;6.13;;;4.80;;
53875;SDS011;39789;53.216;5.624;2022-07-30T00:59:52;9.35;;;6.32;;
53875;SDS011;39789;53.216;5.624;2022-07-30T01:02:18;6.68;;;5.57;;
53875;SDS011;39789;53.216;5.624;2022-07-30T01:04:43;7.30;;;4.93;;
53875;SDS011;39789;53.216;5.624;2022-07-30T01:07:09;9.15;;;5.00;;
53875;SDS011;39789;53.216;5.624;2022-07-30T01:09:36;6.55;;;4.90;;
53875;SDS011;39789;53.216;5.624;2022-07-30T01:12:02;8.95;;;5.03;;
53875;SDS011;39789;53.216;5.624;2022-07-30T01:14:30;7.70;;;5.75;;
53875;SDS011;39789;53.216;5.624;2022-07-30T01:16:58;10.10;;;4.97;;
53875;SDS011;39789;53.216;5.624;2022-07-30T01:19:24;6.78;;;5.05;;
53875;SDS011;39789;53.216;5.624;2022-07-30T01:25:15;6.65;;;5.10;;
53875;SDS011;39789;53.216;5.624;2022-07-30T01:27:49;10.80;;;5.20;;
53875;SDS011;39789;53.216;5.624;2022-07-30T01:30:19;8.05;;;5.97;;
53875;SDS011;39789;53.216;5.624;2022-07-30T01:32:49;8.48;;;5.30;;
53875;SDS011;39789;53.216;5.624;2022-07-30T01:35:17;9.50;;;5.13;;
53875;SDS011;39789;53.216;5.624;2022-07-30T01:37:45;7.60;;;6.00;;
53875;SDS011;39789;53.216;5.624;2022-07-30T01:40:13;8.75;;;5.53;;
53875;SDS011;39789;53.216;5.624;2022-07-30T01:42:39;9.38;;;6.35;;
53875;SDS011;39789;53.216;5.624;2022-07-30T01:45:06;9.93;;;6.35;;
53875;SDS011;39789;53.216;5.624;2022-07-30T01:47:33;9.73;;;6.10;;
53875;SDS011;39789;53.216;5.624;2022-07-30T01:50:01;11.32;;;5.85;;
53875;SDS011;39789;53.216;5.624;2022-07-30T01:52:30;7.47;;;5.93;;
53875;SDS011;39789;53.216;5.624;2022-07-30T01:54:57;6.65;;;5.53;;
53875;SDS011;39789;53.216;5.624;2022-07-30T01:57:26;7.10;;;6.22;;
53875;SDS011;39789;53.216;5.624;2022-07-30T01:59:54;8.55;;;6.18;;
53875;SDS011;39789;53.216;5.624;2022-07-30T02:02:25;9.80;;;5.72;;
53875;SDS011;39789;53.216;5.624;2022-07-30T02:04:51;9.32;;;6.10;;
53875;SDS011;39789;53.216;5.624;2022-07-30T02:07:26;10.43;;;6.13;;
53875;SDS011;39789;53.216;5.624;2022-07-30T02:10:12;8.43;;;6.07;;
53875;SDS011;39789;53.216;5.624;2022-07-30T02:12:51;9.07;;;7.00;;
53875;SDS011;39789;53.216;5.624;2022-07-30T02:15:31;9.68;;;7.63;;
53875;SDS011;39789;53.216;5.624;2022-07-30T02:18:20;9.95;;;7.00;;
53875;SDS011;39789;53.216;5.624;2022-07-30T02:20:55;11.10;;;8.32;;
53875;SDS011;39789;53.216;5.624;2022-07-30T02:23:25;9.23;;;7.32;;
53875;SDS011;39789;53.216;5.624;2022-07-30T02:25:53;10.30;;;7.05;;
53875;SDS011;39789;53.216;5.624;2022-07-30T02:28:23;14.55;;;7.40;;
53875;SDS011;39789;53.216;5.624;2022-07-30T02:30:51;10.95;;;7.03;;
53875;SDS011;39789;53.216;5.624;2022-07-30T02:33:25;11.35;;;7.05;;
53875;SDS011;39789;53.216;5.624;2022-07-30T02:35:53;12.25;;;7.13;;
53875;SDS011;39789;53.216;5.624;2022-07-30T02:38:20;14.07;;;6.88;;
53875;SDS011;39789;53.216;5.624;2022-07-30T02:40:46;10.15;;;6.43;;
53875;SDS011;39789;53.216;5.624;2022-07-30T02:43:13;11.02;;;7.55;;
53875;SDS011;39789;53.216;5.624;2022-07-30T02:45:40;11.32;;;7.00;;
53875;SDS011;39789;53.216;5.624;2022-07-30T02:48:08;12.32;;;8.07;;
53875;SDS011;39789;53.216;5.624;2022-07-30T02:50:35;8.77;;;6.65;;
53875;SDS011;39789;53.216;5.624;2022-07-30T02:53:04;10.00;;;7.43;;
53875;SDS011;39789;53.216;5.624;2022-07-30T02:55:32;9.73;;;6.28;;
53875;SDS011;39789;53.216;5.624;2022-07-30T02:58:00;10.32;;;6.47;;
53875;SDS011;39789;53.216;5.624;2022-07-30T03:00:28;7.57;;;5.28;;
53875;SDS011;39789;53.216;5.624;2022-07-30T03:02:55;7.10;;;4.80;;
53875;SDS011;39789;53.216;5.624;2022-07-30T03:05:22;11.48;;;4.68;;
53875;SDS011;39789;53.216;5.624;2022-07-30T03:07:50;7.57;;;4.50;;
53875;SDS011;39789;53.216;5.624;2022-07-30T03:10:17;12.65;;;5.15;;
53875;SDS011;39789;53.216;5.624;2022-07-30T03:12:44;8.00;;;4.30;;
53875;SDS011;39789;53.216;5.624;2022-07-30T03:15:11;8.55;;;5.70;;
53875;SDS011;39789;53.216;5.624;2022-07-30T03:17:39;8.05;;;4.72;;
53875;SDS011;39789;53.216;5.624;2022-07-30T03:20:12;10.57;;;5.38;;
53875;SDS011;39789;53.216;5.624;2022-07-30T03:22:42;8.05;;;5.07;;
53875;SDS011;39789;53.216;5.624;2022-07-30T03:25:11;10.80;;;5.78;;
53875;SDS011;39789;53.216;5.624;2022-07-30T03:27:40;8.65;;;5.25;;
53875;SDS011;39789;53.216;5.624;2022-07-30T03:30:07;9.05;;;5.45;;
53875;SDS011;39789;53.216;5.624;2022-07-30T03:32:34;11.27;;;5.60;;
53875;SDS011;39789;53.216;5.624;2022-07-30T03:35:01;11.20;;;5.20;;
53875;SDS011;39789;53.216;5.624;2022-07-30T03:37:27;10.88;;;5.03;;
53875;SDS011;39789;53.216;5.624;2022-07-30T03:39:53;11.25;;;6.75;;
53875;SDS011;39789;53.216;5.624;2022-07-30T03:42:22;13.13;;;6.43;;
53875;SDS011;39789;53.216;5.624;2022-07-30T03:44:48;10.93;;;6.60;;
53875;SDS011;39789;53.216;5.624;2022-07-30T03:47:14;13.80;;;5.88;;
53875;SDS011;39789;53.216;5.624;2022-07-30T03:49:41;7.82;;;5.68;;
53875;SDS011;39789;53.216;5.624;2022-07-30T03:52:07;6.15;;;4.75;;
53875;SDS011;39789;53.216;5.624;2022-07-30T03:54:33;9.35;;;5.07;;
53875;SDS011;39789;53.216;5.624;2022-07-30T03:57:00;10.68;;;5.88;;
53875;SDS011;39789;53.216;5.624;2022-07-30T03:59:27;8.63;;;5.28;;
53875;SDS011;39789;53.216;5.624;2022-07-30T04:01:54;9.13;;;5.10;;
53875;SDS011;39789;53.216;5.624;2022-07-30T04:04:25;12.75;;;6.35;;
53875;SDS011;39789;53.216;5.624;2022-07-30T04:06:51;10.77;;;5.35;;
53875;SDS011;39789;53.216;5.624;2022-07-30T04:09:16;9.10;;;5.80;;
53875;SDS011;39789;53.216;5.624;2022-07-30T04:11:42;8.55;;;6.57;;
53875;SDS011;39789;53.216;5.624;2022-07-30T04:14:07;10.30;;;5.55;;
53875;SDS011;39789;53.216;5.624;2022-07-30T04:16:38;11.40;;;5.20;;
53875;SDS011;39789;53.216;5.624;2022-07-30T04:22:12;12.75;;;6.07;;
53875;SDS011;39789;53.216;5.624;2022-07-30T04:24:40;9.95;;;5.63;;
53875;SDS011;39789;53.216;5.624;2022-07-30T04:27:08;9.82;;;4.78;;
53875;SDS011;39789;53.216;5.624;2022-07-30T04:29:34;8.55;;;5.38;;
53875;SDS011;39789;53.216;5.624;2022-07-30T04:31:59;10.25;;;5.40;;
53875;SDS011;39789;53.216;5.624;2022-07-30T04:34:25;10.45;;;5.10;;
53875;SDS011;39789;53.216;5.624;2022-07-30T04:36:51;11.52;;;5.50;;
53875;SDS011;39789;53.216;5.624;2022-07-30T04:39:16;12.25;;;5.13;;
53875;SDS011;39789;53.216;5.624;2022-07-30T04:41:42;8.95;;;5.00;;
53875;SDS011;39789;53.216;5.624;2022-07-30T04:44:08;12.68;;;5.85;;
53875;SDS011;39789;53.216;5.624;2022-07-30T04:46:34;11.00;;;5.38;;
53875;SDS011;39789;53.216;5.624;2022-07-30T04:49:00;8.15;;;4.90;;
53875;SDS011;39789;53.216;5.624;2022-07-30T04:51:31;10.80;;;5.07;;
53875;SDS011;39789;53.216;5.624;2022-07-30T04:53:58;10.20;;;5.13;;
53875;SDS011;39789;53.216;5.624;2022-07-30T04:56:25;8.07;;;5.25;;
53875;SDS011;39789;53.216;5.624;2022-07-30T04:58:54;10.45;;;6.22;;
53875;SDS011;39789;53.216;5.624;2022-07-30T05:01:22;10.65;;;5.70;;
53875;SDS011;39789;53.216;5.624;2022-07-30T05:03:50;9.35;;;5.60;;
53875;SDS011;39789;53.216;5.624;2022-07-30T05:06:17;9.40;;;5.60;;
53875;SDS011;39789;53.216;5.624;2022-07-30T05:08:44;11.00;;;4.75;;
53875;SDS011;39789;53.216;5.624;2022-07-30T05:11:11;9.60;;;5.53;;
53875;SDS011;39789;53.216;5.624;2022-07-30T05:13:46;9.15;;;6.20;;
53875;SDS011;39789;53.216;5.624;2022-07-30T05:16:13;9.50;;;6.47;;
53875;SDS011;39789;53.216;5.624;2022-07-30T05:18:39;10.45;;;5.85;;
53875;SDS011;39789;53.216;5.624;2022-07-30T05:21:05;11.50;;;6.05;;
53875;SDS011;39789;53.216;5.624;2022-07-30T05:23:31;16.58;;;6.45;;
53875;SDS011;39789;53.216;5.624;2022-07-30T05:25:57;11.05;;;6.70;;
53875;SDS011;39789;53.216;5.624;2022-07-30T05:28:23;9.38;;;5.85;;
53875;SDS011;39789;53.216;5.624;2022-07-30T05:30:51;11.20;;;6.38;;
53875;SDS011;39789;53.216;5.624;2022-07-30T05:33:17;11.27;;;6.40;;
53875;SDS011;39789;53.216;5.624;2022-07-30T05:35:43;12.13;;;6.57;;
53875;SDS011;39789;53.216;5.624;2022-07-30T05:38:09;6.35;;;4.80;;
53875;SDS011;39789;53.216;5.624;2022-07-30T05:40:35;9.43;;;6.10;;
53875;SDS011;39789;53.216;5.624;2022-07-30T05:43:00;11.50;;;6.63;;
53875;SDS011;39789;53.216;5.624;2022-07-30T05:45:26;8.75;;;5.60;;
53875;SDS011;39789;53.216;5.624;2022-07-30T05:47:51;12.75;;;6.57;;
53875;SDS011;39789;53.216;5.624;2022-07-30T05:50:17;9.52;;;5.70;;
53875;SDS011;39789;53.216;5.624;2022-07-30T05:52:42;10.35;;;5.32;;
53875;SDS011;39789;53.216;5.624;2022-07-30T05:55:08;9.68;;;6.90;;
53875;SDS011;39789;53.216;5.624;2022-07-30T05:57:35;8.77;;;5.80;;
53875;SDS011;39789;53.216;5.624;2022-07-30T06:00:01;9.23;;;5.40;;
53875;SDS011;39789;53.216;5.624;2022-07-30T06:02:31;11.70;;;6.60;;
53875;SDS011;39789;53.216;5.624;2022-07-30T06:04:57;7.35;;;5.00;;
53875;SDS011;39789;53.216;5.624;2022-07-30T06:07:22;9.65;;;4.72;;
53875;SDS011;39789;53.216;5.624;2022-07-30T06:09:48;11.30;;;6.07;;
53875;SDS011;39789;53.216;5.624;2022-07-30T06:12:14;10.02;;;4.90;;
53875;SDS011;39789;53.216;5.624;2022-07-30T06:14:39;7.45;;;4.72;;
53875;SDS011;39789;53.216;5.624;2022-07-30T06:17:05;13.43;;;5.68;;
53875;SDS011;39789;53.216;5.624;2022-07-30T06:19:30;7.95;;;4.95;;
53875;SDS011;39789;53.216;5.624;2022-07-30T06:21:56;7.63;;;4.70;;
53875;SDS011;39789;53.216;5.624;2022-07-30T06:24:22;9.32;;;5.18;;
53875;SDS011;39789;53.216;5.624;2022-07-30T06:26:48;9.65;;;5.03;;
53875;SDS011;39789;53.216;5.624;2022-07-30T06:29:14;7.32;;;5.00;;
53875;SDS011;39789;53.216;5.624;2022-07-30T06:31:40;7.35;;;5.43;;
53875;SDS011;39789;53.216;5.624;2022-07-30T06:34:05;11.20;;;5.40;;
53875;SDS011;39789;53.216;5.624;2022-07-30T06:36:31;8.20;;;4.88;;
53875;SDS011;39789;53.216;5.624;2022-07-30T06:38:57;9.85;;;5.20;;
53875;SDS011;39789;53.216;5.624;2022-07-30T06:41:22;7.18;;;4.65;;
53875;SDS011;39789;53.216;5.624;2022-07-30T06:43:48;8.70;;;4.55;;
53875;SDS011;39789;53.216;5.624;2022-07-30T06:46:15;8.05;;;4.47;;
53875;SDS011;39789;53.216;5.624;2022-07-30T06:48:40;7.10;;;4.68;;
53875;SDS011;39789;53.216;5.624;2022-07-30T06:51:07;7.53;;;4.57;;
53875;SDS011;39789;53.216;5.624;2022-07-30T06:53:33;8.27;;;4.78;;
53875;SDS011;39789;53.216;5.624;2022-07-30T06:59:40;9.73;;;4.80;;
53875;SDS011;39789;53.216;5.624;2022-07-30T07:02:05;7.40;;;4.00;;
53875;SDS011;39789;53.216;5.624;2022-07-30T07:04:31;4.68;;;3.67;;
53875;SDS011;39789;53.216;5.624;2022-07-30T07:06:58;6.68;;;3.97;;
53875;SDS011;39789;53.216;5.624;2022-07-30T07:09:27;7.90;;;4.47;;
53875;SDS011;39789;53.216;5.624;2022-07-30T07:12:00;7.00;;;4.60;;
53875;SDS011;39789;53.216;5.624;2022-07-30T07:14:40;8.63;;;4.25;;
53875;SDS011;39789;53.216;5.624;2022-07-30T07:17:21;16.33;;;6.30;;
53875;SDS011;39789;53.216;5.624;2022-07-30T07:19:47;12.50;;;3.97;;
53875;SDS011;39789;53.216;5.624;2022-07-30T07:22:12;6.50;;;4.20;;
53875;SDS011;39789;53.216;5.624;2022-07-30T07:28:19;5.35;;;4.22;;
53875;SDS011;39789;53.216;5.624;2022-07-30T07:30:44;7.88;;;3.40;;
53875;SDS011;39789;53.216;5.624;2022-07-30T07:33:10;6.72;;;3.78;;
53875;SDS011;39789;53.216;5.624;2022-07-30T07:35:36;5.60;;;3.88;;
53875;SDS011;39789;53.216;5.624;2022-07-30T07:38:02;4.57;;;3.42;;
53875;SDS011;39789;53.216;5.624;2022-07-30T07:40:27;6.82;;;3.60;;
53875;SDS011;39789;53.216;5.624;2022-07-30T07:42:54;8.23;;;3.63;;
53875;SDS011;39789;53.216;5.624;2022-07-30T07:45:20;5.82;;;3.50;;
53875;SDS011;39789;53.216;5.624;2022-07-30T07:47:47;6.28;;;3.60;;
53875;SDS011;39789;53.216;5.624;2022-07-30T07:50:16;10.77;;;4.00;;
53875;SDS011;39789;53.216;5.624;2022-07-30T07:52:42;6.53;;;3.65;;
53875;SDS011;39789;53.216;5.624;2022-07-30T07:55:08;9.10;;;3.90;;
53875;SDS011;39789;53.216;5.624;2022-07-30T07:57:41;10.07;;;3.90;;
53875;SDS011;39789;53.216;5.624;2022-07-30T08:00:08;7.50;;;3.47;;
53875;SDS011;39789;53.216;5.624;2022-07-30T08:02:35;9.70;;;3.78;;
53875;SDS011;39789;53.216;5.624;2022-07-30T08:08:42;6.50;;;3.50;;
53875;SDS011;39789;53.216;5.624;2022-07-30T08:11:07;4.47;;;3.28;;
53875;SDS011;39789;53.216;5.624;2022-07-30T08:13:33;4.95;;;3.35;;
53875;SDS011;39789;53.216;5.624;2022-07-30T08:16:00;6.28;;;3.53;;
53875;SDS011;39789;53.216;5.624;2022-07-30T08:18:26;8.32;;;3.55;;
53875;SDS011;39789;53.216;5.624;2022-07-30T08:20:52;4.63;;;2.80;;
53875;SDS011;39789;53.216;5.624;2022-07-30T08:23:17;7.15;;;3.40;;
53875;SDS011;39789;53.216;5.624;2022-07-30T08:25:46;4.28;;;3.50;;
53875;SDS011;39789;53.216;5.624;2022-07-30T08:28:12;7.47;;;3.53;;
53875;SDS011;39789;53.216;5.624;2022-07-30T08:30:37;5.50;;;2.88;;
53875;SDS011;39789;53.216;5.624;2022-07-30T08:33:03;4.45;;;3.10;;
53875;SDS011;39789;53.216;5.624;2022-07-30T08:35:29;8.77;;;3.65;;
53875;SDS011;39789;53.216;5.624;2022-07-30T08:37:56;4.45;;;3.08;;
53875;SDS011;39789;53.216;5.624;2022-07-30T08:40:21;4.97;;;3.40;;
53875;SDS011;39789;53.216;5.624;2022-07-30T08:42:50;4.63;;;3.53;;
53875;SDS011;39789;53.216;5.624;2022-07-30T08:45:16;7.95;;;3.78;;
53875;SDS011;39789;53.216;5.624;2022-07-30T08:47:43;5.47;;;3.63;;
53875;SDS011;39789;53.216;5.624;2022-07-30T08:50:11;3.85;;;3.20;;
53875;SDS011;39789;53.216;5.624;2022-07-30T08:52:38;25.02;;;5.40;;
53875;SDS011;39789;53.216;5.624;2022-07-30T08:55:05;3.75;;;3.10;;
53875;SDS011;39789;53.216;5.624;2022-07-30T08:57:34;5.80;;;3.00;;
53875;SDS011;39789;53.216;5.624;2022-07-30T09:00:01;6.50;;;3.28;;
53875;SDS011;39789;53.216;5.624;2022-07-30T09:02:30;4.28;;;3.22;;
53875;SDS011;39789;53.216;5.624;2022-07-30T09:04:56;5.68;;;3.30;;
53875;SDS011;39789;53.216;5.624;2022-07-30T09:07:22;6.20;;;3.33;;
53875;SDS011;39789;53.216;5.624;2022-07-30T09:09:47;6.22;;;2.70;;
53875;SDS011;39789;53.216;5.624;2022-07-30T09:12:32;3.85;;;2.85;;
53875;SDS011;39789;53.216;5.624;2022-07-30T09:17:46;4.82;;;3.40;;
53875;SDS011;39789;53.216;5.624;2022-07-30T09:20:15;4.43;;;2.70;;
53875;SDS011;39789;53.216;5.624;2022-07-30T09:22:43;4.70;;;2.72;;
53875;SDS011;39789;53.216;5.624;2022-07-30T09:25:10;5.53;;;2.60;;
53875;SDS011;39789;53.216;5.624;2022-07-30T09:27:43;4.57;;;3.05;;
53875;SDS011;39789;53.216;5.624;2022-07-30T09:30:13;5.72;;;2.95;;
53875;SDS011;39789;53.216;5.624;2022-07-30T09:32:45;5.07;;;3.22;;
53875;SDS011;39789;53.216;5.624;2022-07-30T09:35:21;4.07;;;2.70;;
53875;SDS011;39789;53.216;5.624;2022-07-30T09:37:55;5.32;;;3.03;;
53875;SDS011;39789;53.216;5.624;2022-07-30T09:40:25;3.97;;;3.00;;
53875;SDS011;39789;53.216;5.624;2022-07-30T09:43:04;3.70;;;2.67;;
53875;SDS011;39789;53.216;5.624;2022-07-30T09:45:31;3.80;;;2.58;;
53875;SDS011;39789;53.216;5.624;2022-07-30T09:47:57;4.03;;;3.10;;
53875;SDS011;39789;53.216;5.624;2022-07-30T09:50:22;3.00;;;2.53;;
53875;SDS011;39789;53.216;5.624;2022-07-30T09:52:50;3.20;;;2.50;;
53875;SDS011;39789;53.216;5.624;2022-07-30T09:55:27;3.47;;;2.80;;
53875;SDS011;39789;53.216;5.624;2022-07-30T09:57:56;3.33;;;2.40;;
53875;SDS011;39789;53.216;5.624;2022-07-30T10:00:25;6.70;;;2.60;;
53875;SDS011;39789;53.216;5.624;2022-07-30T10:02:52;4.22;;;2.50;;
53875;SDS011;39789;53.216;5.624;2022-07-30T10:05:19;4.88;;;2.63;;
53875;SDS011;39789;53.216;5.624;2022-07-30T10:07:49;3.97;;;2.55;;
53875;SDS011;39789;53.216;5.624;2022-07-30T10:10:15;4.90;;;2.72;;
53875;SDS011;39789;53.216;5.624;2022-07-30T10:12:43;9.48;;;2.72;;
53875;SDS011;39789;53.216;5.624;2022-07-30T10:15:10;7.07;;;2.55;;
53875;SDS011;39789;53.216;5.624;2022-07-30T10:17:37;10.85;;;2.88;;
53875;SDS011;39789;53.216;5.624;2022-07-30T10:20:04;5.93;;;2.70;;
53875;SDS011;39789;53.216;5.624;2022-07-30T10:22:33;5.00;;;2.58;;
53875;SDS011;39789;53.216;5.624;2022-07-30T10:24:59;4.25;;;2.33;;
53875;SDS011;39789;53.216;5.624;2022-07-30T10:27:25;8.27;;;2.80;;
53875;SDS011;39789;53.216;5.624;2022-07-30T10:29:51;3.60;;;2.20;;
53875;SDS011;39789;53.216;5.624;2022-07-30T10:32:17;4.03;;;2.20;;
53875;SDS011;39789;53.216;5.624;2022-07-30T10:34:43;3.22;;;2.17;;
53875;SDS011;39789;53.216;5.624;2022-07-30T10:37:08;7.85;;;2.63;;
53875;SDS011;39789;53.216;5.624;2022-07-30T10:39:38;2.85;;;2.28;;
53875;SDS011;39789;53.216;5.624;2022-07-30T10:42:20;5.13;;;2.10;;
53875;SDS011;39789;53.216;5.624;2022-07-30T10:48:14;3.50;;;1.95;;
53875;SDS011;39789;53.216;5.624;2022-07-30T10:50:54;2.75;;;2.17;;
53875;SDS011;39789;53.216;5.624;2022-07-30T10:53:40;5.22;;;2.00;;
53875;SDS011;39789;53.216;5.624;2022-07-30T11:02:09;4.60;;;2.05;;
53875;SDS011;39789;53.216;5.624;2022-07-30T11:04:34;7.78;;;2.63;;
53875;SDS011;39789;53.216;5.624;2022-07-30T11:09:50;5.50;;;2.45;;
53875;SDS011;39789;53.216;5.624;2022-07-30T11:15:05;2.47;;;1.92;;
53875;SDS011;39789;53.216;5.624;2022-07-30T11:17:56;6.18;;;2.58;;
53875;SDS011;39789;53.216;5.624;2022-07-30T11:20:25;3.40;;;1.83;;
53875;SDS011;39789;53.216;5.624;2022-07-30T11:22:51;5.93;;;2.15;;
53875;SDS011;39789;53.216;5.624;2022-07-30T11:27:52;3.70;;;2.35;;
53875;SDS011;39789;53.216;5.624;2022-07-30T11:32:50;2.25;;;1.83;;
53875;SDS011;39789;53.216;5.624;2022-07-30T11:35:35;5.47;;;1.77;;
53875;SDS011;39789;53.216;5.624;2022-07-30T11:38:08;2.15;;;1.73;;
53875;SDS011;39789;53.216;5.624;2022-07-30T11:45:50;3.70;;;1.85;;
53875;SDS011;39789;53.216;5.624;2022-07-30T11:48:17;2.22;;;1.83;;
53875;SDS011;39789;53.216;5.624;2022-07-30T11:50:44;2.15;;;1.85;;
53875;SDS011;39789;53.216;5.624;2022-07-30T11:53:16;3.72;;;1.63;;
53875;SDS011;39789;53.216;5.624;2022-07-30T11:55:54;6.88;;;2.03;;
53875;SDS011;39789;53.216;5.624;2022-07-30T12:01:05;3.05;;;1.83;;
53875;SDS011;39789;53.216;5.624;2022-07-30T12:03:41;4.70;;;1.80;;
53875;SDS011;39789;53.216;5.624;2022-07-30T12:09:49;5.03;;;2.80;;
53875;SDS011;39789;53.216;5.624;2022-07-30T12:12:21;2.92;;;2.42;;
53875;SDS011;39789;53.216;5.624;2022-07-30T12:14:48;7.07;;;2.00;;
53875;SDS011;39789;53.216;5.624;2022-07-30T12:17:14;1.88;;;1.52;;
53875;SDS011;39789;53.216;5.624;2022-07-30T12:19:43;4.00;;;1.60;;
53875;SDS011;39789;53.216;5.624;2022-07-30T12:22:10;3.70;;;1.50;;
53875;SDS011;39789;53.216;5.624;2022-07-30T12:24:35;2.08;;;1.40;;
53875;SDS011;39789;53.216;5.624;2022-07-30T12:27:05;2.05;;;1.58;;
53875;SDS011;39789;53.216;5.624;2022-07-30T12:29:32;2.10;;;1.52;;
53875;SDS011;39789;53.216;5.624;2022-07-30T12:31:59;1.50;;;1.40;;
53875;SDS011;39789;53.216;5.624;2022-07-30T12:34:26;3.28;;;1.80;;
53875;SDS011;39789;53.216;5.624;2022-07-30T12:36:52;2.80;;;1.40;;
53875;SDS011;39789;53.216;5.624;2022-07-30T12:39:19;3.17;;;1.70;;
53875;SDS011;39789;53.216;5.624;2022-07-30T12:41:52;3.05;;;1.38;;
53875;SDS011;39789;53.216;5.624;2022-07-30T12:44:32;1.58;;;1.48;;
53875;SDS011;39789;53.216;5.624;2022-07-30T12:47:16;6.35;;;1.92;;
53875;SDS011;39789;53.216;5.624;2022-07-30T12:49:49;2.00;;;1.60;;
53875;SDS011;39789;53.216;5.624;2022-07-30T12:52:20;3.17;;;1.35;;
53875;SDS011;39789;53.216;5.624;2022-07-30T12:57:22;4.05;;;1.73;;
53875;SDS011;39789;53.216;5.624;2022-07-30T12:59:58;2.10;;;1.50;;
53875;SDS011;39789;53.216;5.624;2022-07-30T13:02:31;4.22;;;1.90;;
53875;SDS011;39789;53.216;5.624;2022-07-30T13:05:00;2.47;;;1.50;;
53875;SDS011;39789;53.216;5.624;2022-07-30T13:07:26;1.92;;;1.73;;
53875;SDS011;39789;53.216;5.624;2022-07-30T13:12:51;2.05;;;1.80;;
53875;SDS011;39789;53.216;5.624;2022-07-30T13:15:18;2.13;;;1.90;;
53875;SDS011;39789;53.216;5.624;2022-07-30T13:17:44;3.00;;;2.13;;
53875;SDS011;39789;53.216;5.624;2022-07-30T13:20:11;5.20;;;1.70;;
53875;SDS011;39789;53.216;5.624;2022-07-30T13:22:39;3.03;;;1.80;;
53875;SDS011;39789;53.216;5.624;2022-07-30T13:25:05;2.03;;;1.50;;
53875;SDS011;39789;53.216;5.624;2022-07-30T13:27:31;5.68;;;2.20;;
53875;SDS011;39789;53.216;5.624;2022-07-30T13:29:57;5.28;;;2.22;;
53875;SDS011;39789;53.216;5.624;2022-07-30T13:32:23;2.50;;;2.05;;
53875;SDS011;39789;53.216;5.624;2022-07-30T13:34:48;1.48;;;1.30;;
53875;SDS011;39789;53.216;5.624;2022-07-30T13:37:14;1.70;;;1.40;;
53875;SDS011;39789;53.216;5.624;2022-07-30T13:39:39;2.00;;;1.60;;
53875;SDS011;39789;53.216;5.624;2022-07-30T13:42:05;3.50;;;1.70;;
53875;SDS011;39789;53.216;5.624;2022-07-30T13:44:31;1.48;;;1.38;;
53875;SDS011;39789;53.216;5.624;2022-07-30T13:46:56;2.22;;;1.65;;
53875;SDS011;39789;53.216;5.624;2022-07-30T13:49:22;3.35;;;1.55;;
53875;SDS011;39789;53.216;5.624;2022-07-30T13:51:47;2.67;;;1.30;;
53875;SDS011;39789;53.216;5.624;2022-07-30T13:54:13;1.63;;;1.30;;
53875;SDS011;39789;53.216;5.624;2022-07-30T13:56:39;1.70;;;1.50;;
53875;SDS011;39789;53.216;5.624;2022-07-30T13:59:05;2.90;;;1.25;;
53875;SDS011;39789;53.216;5.624;2022-07-30T14:01:30;1.27;;;1.17;;
53875;SDS011;39789;53.216;5.624;2022-07-30T14:03:56;1.42;;;1.23;;
53875;SDS011;39789;53.216;5.624;2022-07-30T14:06:22;2.60;;;1.35;;
53875;SDS011;39789;53.216;5.624;2022-07-30T14:08:47;5.32;;;1.40;;
53875;SDS011;39789;53.216;5.624;2022-07-30T14:11:13;1.88;;;1.40;;
53875;SDS011;39789;53.216;5.624;2022-07-30T14:13:40;1.65;;;1.35;;
53875;SDS011;39789;53.216;5.624;2022-07-30T14:16:05;3.28;;;1.50;;
53875;SDS011;39789;53.216;5.624;2022-07-30T14:18:31;3.85;;;1.30;;
53875;SDS011;39789;53.216;5.624;2022-07-30T14:20:57;2.58;;;1.65;;
53875;SDS011;39789;53.216;5.624;2022-07-30T14:23:22;1.88;;;1.40;;
53875;SDS011;39789;53.216;5.624;2022-07-30T14:25:48;1.38;;;1.30;;
53875;SDS011;39789;53.216;5.624;2022-07-30T14:28:14;1.75;;;1.45;;
53875;SDS011;39789;53.216;5.624;2022-07-30T14:30:41;4.88;;;1.67;;
53875;SDS011;39789;53.216;5.624;2022-07-30T14:33:06;1.50;;;1.40;;
53875;SDS011;39789;53.216;5.624;2022-07-30T14:35:32;2.53;;;1.60;;
53875;SDS011;39789;53.216;5.624;2022-07-30T14:37:58;4.80;;;1.85;;
53875;SDS011;39789;53.216;5.624;2022-07-30T14:40:23;2.95;;;1.40;;
53875;SDS011;39789;53.216;5.624;2022-07-30T14:42:49;2.50;;;1.73;;
53875;SDS011;39789;53.216;5.624;2022-07-30T14:45:16;2.45;;;1.80;;
53875;SDS011;39789;53.216;5.624;2022-07-30T14:47:41;1.42;;;1.20;;
53875;SDS011;39789;53.216;5.624;2022-07-30T14:50:07;1.73;;;1.23;;
53875;SDS011;39789;53.216;5.624;2022-07-30T14:52:39;2.35;;;1.50;;
53875;SDS011;39789;53.216;5.624;2022-07-30T14:55:05;2.72;;;1.67;;
53875;SDS011;39789;53.216;5.624;2022-07-30T14:57:31;5.72;;;1.67;;
53875;SDS011;39789;53.216;5.624;2022-07-30T14:59:57;3.55;;;1.80;;
53875;SDS011;39789;53.216;5.624;2022-07-30T15:02:23;2.72;;;1.25;;
53875;SDS011;39789;53.216;5.624;2022-07-30T15:04:49;2.42;;;1.30;;
53875;SDS011;39789;53.216;5.624;2022-07-30T15:07:14;4.68;;;2.45;;
53875;SDS011;39789;53.216;5.624;2022-07-30T15:09:40;2.47;;;2.00;;
53875;SDS011;39789;53.216;5.624;2022-07-30T15:12:06;2.15;;;1.70;;
53875;SDS011;39789;53.216;5.624;2022-07-30T15:14:38;8.48;;;1.77;;
53875;SDS011;39789;53.216;5.624;2022-07-30T15:17:04;1.13;;;1.10;;
53875;SDS011;39789;53.216;5.624;2022-07-30T15:19:30;2.30;;;1.35;;
53875;SDS011;39789;53.216;5.624;2022-07-30T15:21:57;3.70;;;1.77;;
53875;SDS011;39789;53.216;5.624;2022-07-30T15:24:25;2.72;;;1.40;;
53875;SDS011;39789;53.216;5.624;2022-07-30T15:26:51;2.10;;;1.48;;
53875;SDS011;39789;53.216;5.624;2022-07-30T15:29:17;2.13;;;1.42;;
53875;SDS011;39789;53.216;5.624;2022-07-30T15:31:45;4.95;;;1.50;;
53875;SDS011;39789;53.216;5.624;2022-07-30T15:34:28;2.72;;;1.80;;
53875;SDS011;39789;53.216;5.624;2022-07-30T15:36:58;1.98;;;1.60;;
53875;SDS011;39789;53.216;5.624;2022-07-30T15:39:24;2.58;;;1.20;;
53875;SDS011;39789;53.216;5.624;2022-07-30T15:41:50;3.03;;;1.70;;
53875;SDS011;39789;53.216;5.624;2022-07-30T15:44:18;4.13;;;1.95;;
53875;SDS011;39789;53.216;5.624;2022-07-30T15:46:43;3.05;;;1.58;;